createdAt,value
2022-09-16T00:02:27.050Z,34.40
2022-09-16T00:05:29.016Z,34.30
2022-09-16T00:08:32.162Z,33.30
2022-09-16T00:11:34.656Z,35.80
2022-09-16T00:14:36.438Z,38.30
2022-09-16T00:17:38.638Z,31.20
2022-09-16T00:20:47.786Z,33.10
2022-09-16T00:23:49.798Z,35.30
2022-09-16T00:26:51.617Z,35.90
2022-09-16T00:29:53.889Z,33.10
2022-09-16T00:32:55.812Z,32.40
2022-09-16T00:36:15.843Z,31.10
2022-09-16T00:39:17.803Z,34.70
2022-09-16T00:42:19.661Z,32.70
2022-09-16T00:45:23.815Z,31.90
2022-09-16T00:48:27.928Z,37.70
2022-09-16T00:51:29.740Z,36.40
2022-09-16T00:54:31.979Z,35.90
2022-09-16T00:57:34.607Z,33.20
2022-09-16T01:00:38.412Z,37.70
2022-09-16T01:04:04.849Z,34.40
2022-09-16T01:07:06.890Z,36.10
2022-09-16T01:10:09.046Z,35.50
2022-09-16T01:13:12.896Z,34.30
2022-09-16T01:16:38.973Z,35.20
2022-09-16T01:20:04.405Z,33.40
2022-09-16T01:23:09.199Z,34.40
2022-09-16T01:26:28.605Z,37.50
2022-09-16T01:29:45.649Z,35.80
2022-09-16T01:33:27.606Z,46.10
2022-09-16T01:36:50.609Z,40.40
2022-09-16T01:40:10.004Z,39.40
2022-09-16T01:43:21.836Z,34.90
2022-09-16T01:46:31.308Z,40.30
2022-09-16T01:50:03.081Z,34.80
2022-09-16T01:53:32.935Z,35.50
2022-09-16T01:56:48.644Z,37.70
2022-09-16T02:00:04.426Z,37.80
2022-09-16T02:03:19.121Z,37.50
2022-09-16T02:06:23.500Z,38.10
2022-09-16T02:09:56.765Z,40.90
2022-09-16T02:13:04.193Z,41.10
2022-09-16T02:16:21.016Z,38.80
2022-09-16T02:19:51.166Z,40.70
2022-09-16T02:22:58.638Z,45.20
2022-09-16T02:26:01.841Z,40.20
2022-09-16T02:29:09.431Z,43.60
2022-09-16T02:32:12.284Z,43.70
2022-09-16T02:35:16.761Z,39.80
2022-09-16T02:38:41.896Z,47.40
2022-09-16T02:41:43.833Z,42.00
2022-09-16T02:44:47.095Z,45.90
2022-09-16T02:47:59.161Z,42.60
2022-09-16T02:51:13.918Z,42.50
2022-09-16T02:54:39.575Z,45.90
2022-09-16T02:57:41.844Z,46.20
2022-09-16T03:00:46.731Z,43.80
2022-09-16T03:03:48.690Z,43.50
2022-09-16T03:06:50.521Z,44.70
2022-09-16T03:09:52.429Z,45.70
2022-09-16T03:13:08.153Z,40.80
2022-09-16T03:16:17.720Z,39.20
2022-09-16T03:20:01.820Z,38.00
2022-09-16T03:23:20.171Z,42.00
2022-09-16T03:26:32.540Z,35.50
2022-09-16T03:29:37.437Z,38.10
2022-09-16T03:33:06.307Z,37.70
2022-09-16T03:36:09.890Z,36.60
2022-09-16T03:39:12.400Z,36.40
2022-09-16T03:42:14.256Z,35.90
2022-09-16T03:45:18.750Z,40.60
2022-09-16T03:48:20.831Z,35.70
2022-09-16T03:51:24.168Z,36.30
2022-09-16T03:54:26.057Z,41.10
2022-09-16T03:57:28.539Z,43.20
2022-09-16T04:00:30.224Z,36.80
2022-09-16T04:03:33.440Z,37.40
2022-09-16T04:06:35.721Z,39.80
2022-09-16T04:09:37.493Z,41.20
2022-09-16T04:12:40.363Z,37.20
2022-09-16T04:15:42.092Z,35.20
2022-09-16T04:18:43.861Z,34.70
2022-09-16T04:21:45.675Z,36.60
2022-09-16T04:24:47.417Z,38.40
2022-09-16T04:27:49.081Z,36.90
2022-09-16T04:30:51.023Z,40.20
2022-09-16T04:33:54.153Z,40.60
2022-09-16T04:36:55.886Z,39.80
2022-09-16T04:40:01.092Z,39.20
2022-09-16T04:43:06.161Z,40.00
2022-09-16T04:46:08.661Z,41.70
2022-09-16T04:49:12.853Z,42.60
2022-09-16T04:52:14.528Z,43.70
2022-09-16T04:55:16.266Z,41.70
2022-09-16T04:58:18.158Z,46.20
2022-09-16T05:01:32.029Z,42.20
2022-09-16T05:04:33.855Z,43.10
2022-09-16T05:07:35.570Z,39.50
2022-09-16T05:10:37.235Z,42.70
2022-09-16T05:13:39.561Z,41.70
2022-09-16T05:16:41.712Z,39.50
2022-09-16T05:19:43.566Z,40.50
2022-09-16T05:22:45.753Z,45.30
2022-09-16T05:25:47.398Z,33.30
2022-09-16T05:28:51.016Z,31.30
2022-09-16T05:31:52.834Z,33.00
2022-09-16T05:34:55.014Z,33.80
2022-09-16T05:37:56.842Z,30.90
2022-09-16T05:41:00.508Z,28.20
2022-09-16T05:44:02.613Z,28.30
2022-09-16T05:47:04.271Z,27.10
2022-09-16T05:50:06.594Z,25.80
2022-09-16T05:53:08.413Z,25.00
2022-09-16T05:56:14.295Z,26.40
2022-09-16T05:59:17.307Z,25.00
2022-09-16T06:02:19.071Z,25.40
2022-09-16T06:05:22.180Z,28.20
2022-09-16T06:08:24.093Z,33.80
2022-09-16T06:11:27.319Z,27.90
2022-09-16T06:14:29.480Z,24.90
2022-09-16T06:17:31.298Z,23.70
2022-09-16T06:20:33.114Z,26.40
2022-09-16T06:23:35.878Z,25.50
2022-09-16T06:26:39.498Z,24.60
2022-09-16T06:29:41.167Z,25.80
2022-09-16T06:32:42.858Z,26.30
2022-09-16T06:35:44.457Z,22.70
2022-09-16T06:38:47.116Z,23.80
2022-09-16T06:41:49.346Z,26.20
2022-09-16T06:44:51.077Z,22.40
2022-09-16T06:47:52.694Z,24.30
2022-09-16T06:51:02.087Z,22.00
2022-09-16T06:54:06.065Z,21.40
2022-09-16T06:57:11.920Z,19.00
2022-09-16T07:00:14.394Z,22.40
2022-09-16T07:03:16.101Z,19.40
2022-09-16T07:06:19.526Z,24.90
2022-09-16T07:09:22.415Z,21.40
2022-09-16T07:12:24.343Z,17.60
2022-09-16T07:15:26.265Z,16.90
2022-09-16T07:18:29.614Z,18.60
2022-09-16T07:21:31.315Z,17.90
2022-09-16T07:24:34.114Z,17.50
2022-09-16T07:27:35.893Z,16.70
2022-09-16T07:30:37.718Z,16.10
2022-09-16T07:33:42.220Z,18.80
2022-09-16T07:36:47.941Z,15.90
2022-09-16T07:39:50.332Z,16.20
2022-09-16T07:42:52.004Z,16.00
2022-09-16T07:45:58.057Z,18.40
2022-09-16T07:49:01.550Z,15.10
2022-09-16T07:52:03.336Z,19.50
2022-09-16T07:55:05.470Z,13.80
2022-09-16T07:58:07.171Z,14.40
2022-09-16T08:01:09.445Z,12.40
2022-09-16T08:04:11.300Z,18.80
2022-09-16T08:07:13.038Z,15.90
2022-09-16T08:10:14.849Z,14.10
2022-09-16T08:13:16.610Z,13.10
2022-09-16T08:16:20.217Z,12.20
2022-09-16T08:19:23.533Z,15.30
2022-09-16T08:22:25.846Z,10.20
2022-09-16T08:25:27.557Z,10.50
2022-09-16T08:28:39.935Z,10.00
2022-09-16T08:31:52.093Z,15.70
2022-09-16T08:34:53.994Z,14.10
2022-09-16T08:37:56.932Z,12.80
2022-09-16T08:41:06.473Z,12.30
2022-09-16T08:44:30.739Z,18.40
2022-09-16T08:48:09.208Z,15.10
2022-09-16T08:51:16.286Z,13.40
2022-09-16T08:54:34.971Z,14.80
2022-09-16T08:57:42.590Z,12.50
2022-09-16T09:00:47.563Z,13.30
2022-09-16T09:03:49.583Z,17.70
2022-09-16T09:07:17.174Z,12.60
2022-09-16T09:10:42.126Z,14.30
2022-09-16T09:14:03.586Z,15.40
2022-09-16T09:17:29.689Z,15.00
2022-09-16T09:21:04.353Z,15.50
2022-09-16T09:24:10.393Z,15.20
2022-09-16T09:27:33.496Z,17.30
2022-09-16T09:30:37.791Z,19.80
2022-09-16T09:33:48.132Z,17.50
2022-09-16T09:37:19.245Z,19.40
2022-09-16T09:40:28.558Z,18.50
2022-09-16T09:46:48.656Z,19.10
2022-09-16T09:49:54.513Z,20.20
2022-09-16T09:53:02.044Z,25.90
2022-09-16T09:56:31.174Z,16.70
2022-09-16T09:59:42.710Z,16.20
2022-09-16T10:02:49.569Z,15.10
2022-09-16T10:05:51.848Z,15.60
2022-09-16T10:08:57.889Z,14.20
2022-09-16T10:12:00.618Z,14.90
2022-09-16T10:15:03.738Z,19.20
2022-09-16T10:18:26.341Z,13.70
2022-09-16T10:21:48.638Z,14.50
2022-09-16T10:24:56.698Z,14.10
2022-09-16T10:28:01.621Z,15.20
2022-09-16T10:31:03.790Z,19.80
2022-09-16T10:34:43.206Z,17.10
2022-09-16T10:37:52.783Z,16.00
2022-09-16T10:41:16.458Z,12.00
2022-09-16T10:44:23.055Z,18.60
2022-09-16T10:47:27.794Z,16.00
2022-09-16T10:50:29.605Z,16.60
2022-09-16T10:53:39.075Z,17.90
2022-09-16T10:56:51.385Z,18.50
2022-09-16T11:00:02.182Z,13.90
2022-09-16T11:03:29.280Z,13.40
2022-09-16T11:06:52.636Z,13.90
2022-09-16T11:10:28.598Z,12.80
2022-09-16T11:13:55.221Z,15.00
2022-09-16T11:17:15.881Z,14.60
2022-09-16T11:20:44.451Z,15.20
2022-09-16T11:24:03.285Z,17.20
2022-09-16T11:27:13.664Z,15.80
2022-09-16T11:30:19.902Z,12.70
2022-09-16T11:33:50.876Z,9.50
2022-09-16T11:40:18.648Z,14.40
2022-09-16T11:43:39.287Z,8.60
2022-09-16T11:46:49.253Z,10.80
2022-09-16T11:50:17.306Z,12.50
2022-09-16T11:53:37.291Z,15.50
2022-09-16T11:56:48.362Z,12.40
2022-09-16T11:59:55.829Z,14.30
2022-09-16T12:03:05.848Z,13.10
2022-09-16T12:06:24.134Z,11.50
2022-09-16T12:09:40.017Z,12.70
2022-09-16T12:12:47.543Z,12.70
2022-09-16T12:15:53.707Z,12.70
2022-09-16T12:18:58.946Z,12.60
2022-09-16T12:22:06.285Z,14.30
2022-09-16T12:25:15.586Z,16.90
2022-09-16T12:28:28.131Z,13.70
2022-09-16T12:31:44.352Z,11.20
2022-09-16T12:35:02.946Z,12.90
2022-09-16T12:38:05.355Z,13.40
2022-09-16T12:41:25.669Z,13.60
2022-09-16T12:44:58.963Z,10.30
2022-09-16T12:48:16.145Z,6.90
2022-09-16T12:51:23.514Z,10.90
2022-09-16T12:55:03.932Z,11.50
2022-09-16T12:58:19.594Z,13.90
2022-09-16T13:01:25.629Z,10.90
2022-09-16T13:04:35.407Z,10.10
2022-09-16T13:07:37.650Z,10.80
2022-09-16T13:10:55.024Z,9.70
2022-09-16T13:14:00.030Z,7.20
2022-09-16T13:17:05.313Z,9.70
2022-09-16T13:20:17.604Z,12.90
2022-09-16T13:23:26.291Z,6.10
2022-09-16T13:26:39.282Z,10.00
2022-09-16T13:29:44.465Z,8.50
2022-09-16T13:32:59.317Z,9.70
2022-09-16T13:36:30.708Z,12.20
2022-09-16T13:39:34.341Z,8.50
2022-09-16T13:42:36.946Z,7.30
2022-09-16T13:45:45.254Z,8.60
2022-09-16T13:48:57.858Z,6.40
2022-09-16T13:52:11.377Z,10.50
2022-09-16T13:55:22.774Z,7.30
2022-09-16T13:58:38.675Z,7.90
2022-09-16T14:01:59.478Z,11.50
2022-09-16T14:05:28.765Z,9.80
2022-09-16T14:08:58.113Z,9.50
2022-09-16T14:12:11.388Z,11.50
2022-09-16T14:15:13.811Z,10.80
2022-09-16T14:18:20.469Z,13.70
2022-09-16T14:21:24.715Z,15.20
2022-09-16T14:24:37.757Z,14.20
2022-09-16T14:27:39.983Z,15.40
2022-09-16T14:30:47.051Z,21.80
2022-09-16T14:33:56.677Z,15.70
2022-09-16T14:36:59.026Z,14.10
2022-09-16T14:40:08.222Z,14.80
2022-09-16T14:43:15.786Z,13.60
2022-09-16T14:46:17.771Z,15.40
2022-09-16T14:49:19.902Z,10.70
2022-09-16T14:52:24.731Z,9.90
2022-09-16T14:55:32.022Z,15.20
2022-09-16T14:58:34.193Z,11.20
2022-09-16T15:01:35.881Z,10.10
2022-09-16T15:04:39.455Z,11.00
2022-09-16T15:07:56.154Z,14.00
2022-09-16T15:11:29.730Z,9.80
2022-09-16T15:14:38.305Z,15.40
2022-09-16T15:17:40.088Z,13.40
2022-09-16T15:20:42.563Z,10.30
2022-09-16T15:23:50.666Z,16.00
2022-09-16T15:26:53.924Z,25.50
2022-09-16T15:29:59.565Z,15.90
2022-09-16T15:33:02.361Z,17.40
2022-09-16T15:36:04.746Z,12.50
2022-09-16T15:39:34.115Z,15.10
2022-09-16T15:42:36.430Z,13.00
2022-09-16T15:45:39.254Z,12.10
2022-09-16T15:48:45.979Z,11.00
2022-09-16T15:51:49.342Z,14.30
2022-09-16T15:55:00.546Z,15.20
2022-09-16T15:58:28.152Z,15.10
2022-09-16T16:01:41.807Z,15.60
2022-09-16T16:04:43.592Z,14.70
2022-09-16T16:07:48.827Z,18.30
2022-09-16T16:11:07.675Z,17.30
2022-09-16T16:14:09.375Z,14.30
2022-09-16T16:17:19.567Z,16.50
2022-09-16T16:20:21.551Z,18.00
2022-09-16T16:23:23.341Z,20.50
2022-09-16T16:26:25.094Z,17.90
2022-09-16T16:29:29.655Z,22.70
2022-09-16T16:32:32.076Z,21.60
2022-09-16T16:35:33.781Z,17.30
2022-09-16T16:38:35.671Z,17.70
2022-09-16T16:41:37.436Z,15.90
2022-09-16T16:44:39.533Z,20.50
2022-09-16T16:47:42.095Z,21.50
2022-09-16T16:50:43.817Z,18.70
2022-09-16T16:53:49.031Z,16.00
2022-09-16T16:56:51.373Z,16.00
2022-09-16T16:59:53.069Z,17.20
2022-09-16T17:02:54.831Z,17.50
2022-09-16T17:05:56.694Z,16.60
2022-09-16T17:08:58.868Z,15.80
2022-09-16T17:12:00.863Z,17.20
2022-09-16T17:15:03.401Z,18.70
2022-09-16T17:18:05.862Z,18.40
2022-09-16T17:21:18.910Z,21.80
2022-09-16T17:24:21.435Z,19.10
2022-09-16T17:27:25.292Z,19.80
2022-09-16T17:30:27.052Z,18.10
2022-09-16T17:33:28.706Z,15.90
2022-09-16T17:36:31.054Z,15.40
2022-09-16T17:39:32.797Z,16.50
2022-09-16T17:42:34.557Z,18.20
2022-09-16T17:45:36.586Z,20.00
2022-09-16T17:48:38.957Z,19.00
2022-09-16T17:51:41.367Z,17.40
2022-09-16T17:54:43.209Z,19.60
2022-09-16T17:57:45.103Z,18.40
2022-09-16T18:00:47.192Z,19.10
2022-09-16T18:03:52.286Z,21.80
2022-09-16T18:06:54.123Z,23.20
2022-09-16T18:09:56.090Z,21.50
2022-09-16T18:13:00.949Z,20.40
2022-09-16T18:16:23.083Z,22.20
2022-09-16T18:19:25.089Z,19.60
2022-09-16T18:22:27.080Z,19.80
2022-09-16T18:25:29.222Z,21.60
2022-09-16T18:28:35.805Z,24.30
2022-09-16T18:31:49.195Z,19.70
2022-09-16T18:34:50.976Z,21.60
2022-09-16T18:37:53.169Z,21.30
2022-09-16T18:41:09.594Z,23.00
2022-09-16T18:44:14.678Z,24.90
2022-09-16T18:47:16.431Z,20.80
2022-09-16T18:50:18.350Z,23.20
2022-09-16T18:53:20.087Z,21.60
2022-09-16T18:56:24.722Z,21.50
2022-09-16T18:59:28.986Z,25.60
2022-09-16T19:02:30.685Z,22.90
2022-09-16T19:05:32.382Z,23.40
2022-09-16T19:08:34.714Z,22.40
2022-09-16T19:11:37.490Z,23.10
2022-09-16T19:14:39.859Z,23.30
2022-09-16T19:17:41.768Z,19.70
2022-09-16T19:20:44.379Z,22.60
2022-09-16T19:23:48.638Z,24.10
2022-09-16T19:26:53.034Z,22.50
2022-09-16T19:29:54.785Z,25.20
2022-09-16T19:32:56.817Z,24.90
2022-09-16T19:35:58.987Z,30.20
2022-09-16T19:39:01.465Z,27.00
2022-09-16T19:42:03.903Z,28.20
2022-09-16T19:45:06.108Z,27.80
2022-09-16T19:48:08.064Z,28.00
2022-09-16T19:51:12.438Z,25.50
2022-09-16T19:54:14.767Z,26.20
2022-09-16T19:57:16.556Z,25.10
2022-09-16T20:00:18.391Z,27.10
2022-09-16T20:03:20.332Z,29.60
2022-09-16T20:06:32.637Z,27.60
2022-09-16T20:09:34.493Z,25.10
2022-09-16T20:12:36.310Z,27.50
2022-09-16T20:15:38.062Z,29.50
2022-09-16T20:18:39.887Z,26.60
2022-09-16T20:21:41.897Z,29.00
2022-09-16T20:24:44.013Z,24.70
2022-09-16T20:27:45.955Z,25.10
2022-09-16T20:30:47.800Z,25.60
2022-09-16T20:33:50.049Z,26.70
2022-09-16T20:36:52.098Z,29.00
2022-09-16T20:39:54.822Z,26.00
2022-09-16T20:42:56.710Z,26.20
2022-09-16T20:46:07.531Z,27.20
2022-09-16T20:49:14.429Z,27.20
2022-09-16T20:52:16.155Z,26.70
2022-09-16T20:55:18.074Z,27.10
2022-09-16T20:58:19.861Z,26.80
2022-09-16T21:01:24.230Z,27.60
2022-09-16T21:04:26.070Z,29.00
2022-09-16T21:07:28.317Z,32.60
2022-09-16T21:10:30.014Z,31.60
2022-09-16T21:13:32.025Z,27.70
2022-09-16T21:16:36.169Z,30.10
2022-09-16T21:19:40.866Z,29.40
2022-09-16T21:22:45.671Z,27.10
2022-09-16T21:25:47.979Z,30.00
2022-09-16T21:28:55.226Z,26.50
2022-09-16T21:31:57.334Z,26.00
2022-09-16T21:34:59.632Z,26.90
2022-09-16T21:38:01.407Z,27.30
2022-09-16T21:41:06.023Z,24.70
2022-09-16T21:44:08.099Z,23.80
2022-09-16T21:47:11.685Z,23.70
2022-09-16T21:50:13.491Z,22.30
2022-09-16T21:53:15.548Z,22.40
2022-09-16T21:56:19.708Z,20.40
2022-09-16T21:59:21.826Z,20.20
2022-09-16T22:02:23.687Z,21.50
2022-09-16T22:05:25.770Z,23.80
2022-09-16T22:08:27.892Z,24.70
2022-09-16T22:11:32.011Z,20.40
2022-09-16T22:14:33.863Z,24.10
2022-09-16T22:17:35.607Z,28.70
2022-09-16T22:20:38.504Z,24.20
2022-09-16T22:23:41.259Z,22.80
2022-09-16T22:26:43.701Z,24.30
2022-09-16T22:29:45.623Z,23.40
2022-09-16T22:32:47.420Z,24.20
2022-09-16T22:35:49.375Z,25.20
2022-09-16T22:38:56.115Z,23.60
2022-09-16T22:41:58.721Z,22.70
2022-09-16T22:45:00.446Z,25.00
2022-09-16T22:48:02.482Z,24.00
2022-09-16T22:51:05.134Z,22.50
2022-09-16T22:54:07.900Z,23.30
2022-09-16T22:57:09.675Z,22.80
2022-09-16T23:00:12.244Z,24.90
2022-09-16T23:03:14.149Z,22.80
2022-09-16T23:06:37.318Z,20.10
2022-09-16T23:09:55.085Z,22.20
2022-09-16T23:12:59.668Z,22.50
2022-09-16T23:16:04.143Z,23.10
2022-09-16T23:19:09.555Z,20.80
2022-09-16T23:22:11.950Z,23.60
2022-09-16T23:25:13.990Z,20.80
2022-09-16T23:28:15.846Z,20.40
2022-09-16T23:31:19.554Z,20.80
2022-09-16T23:34:22.170Z,22.00
2022-09-16T23:37:24.394Z,22.90
2022-09-16T23:40:28.747Z,25.30
2022-09-16T23:43:30.665Z,22.00
2022-09-16T23:46:33.639Z,21.80
2022-09-16T23:49:35.531Z,23.60
2022-09-16T23:52:37.933Z,22.90
2022-09-16T23:55:44.120Z,23.30
2022-09-16T23:58:46.278Z,23.00
